Time;durP1;ratioP1;P1;durP2;ratioP2;P2;SDS_P1;SDS_P2;PMS_P1;PMS_P2;Temp;Humidity;BMP_temperature;BMP_pressure;BME280_temperature;BME280_humidity;BME280_pressure;Samples;Min_cycle;Max_cycle;Signal;HPM_P1;HPM_P2
2021/12/03 00:02:19;;;;;;;1.00;0.70;;;0.30;99.90;;;;;;5096394;28;20410;-51
2021/12/03 00:04:46;;;;;;;0.93;0.73;;;0.30;99.90;;;;;;5096475;28;20431;-48
2021/12/03 00:07:14;;;;;;;1.00;0.80;;;0.30;99.90;;;;;;5096406;28;20450;-57
2021/12/03 00:09:41;;;;;;;4.33;1.17;;;0.20;99.90;;;;;;5096263;28;20435;-54
2021/12/03 00:12:09;;;;;;;2.40;1.40;;;0.20;99.90;;;;;;5096259;28;20425;-60
2021/12/03 00:14:36;;;;;;;2.70;0.97;;;0.20;99.90;;;;;;5096429;28;20455;-55
2021/12/03 00:17:03;;;;;;;1.20;1.10;;;0.20;99.90;;;;;;5096409;28;20528;-51
2021/12/03 00:19:31;;;;;;;1.00;0.87;;;0.20;99.90;;;;;;5095767;28;20478;-56
2021/12/03 00:21:58;;;;;;;2.00;1.03;;;0.30;99.90;;;;;;5096250;28;20427;-56
2021/12/03 00:24:26;;;;;;;0.80;0.60;;;0.30;99.90;;;;;;5096261;28;20465;-51
2021/12/03 00:26:53;;;;;;;1.30;1.10;;;0.20;99.90;;;;;;5095923;28;20446;-55
2021/12/03 00:29:22;;;;;;;1.20;0.90;;;0.20;99.90;;;;;;5095334;28;20447;-53
2021/12/03 00:31:48;;;;;;;2.50;1.60;;;0.20;99.90;;;;;;5095532;28;20907;-54
2021/12/03 00:34:15;;;;;;;1.33;0.70;;;0.20;99.90;;;;;;5095451;28;20443;-59
2021/12/03 00:36:42;;;;;;;4.90;1.80;;;0.20;99.90;;;;;;5096069;28;20998;-54
2021/12/03 00:39:11;;;;;;;2.23;0.93;;;0.20;99.90;;;;;;5095738;28;20467;-53
2021/12/03 00:41:46;;;;;;;3.87;0.90;;;0.20;99.90;;;;;;5095880;28;20498;-58
2021/12/03 00:44:13;;;;;;;1.73;1.63;;;0.20;99.90;;;;;;5095937;28;20450;-57
2021/12/03 00:46:40;;;;;;;1.63;0.67;;;0.30;99.90;;;;;;5096211;28;20454;-59
2021/12/03 00:49:07;;;;;;;2.03;1.20;;;0.30;99.90;;;;;;5095802;28;21262;-58
2021/12/03 00:51:34;;;;;;;2.43;1.33;;;0.30;99.90;;;;;;5095454;28;20423;-57
2021/12/03 00:54:01;;;;;;;1.00;0.67;;;0.30;99.90;;;;;;5095604;28;20456;-53
2021/12/03 00:56:28;;;;;;;6.33;1.40;;;0.30;99.90;;;;;;5094969;28;20466;-56
2021/12/03 00:58:57;;;;;;;3.57;1.10;;;0.30;99.90;;;;;;5094476;28;20457;-54
2021/12/03 01:01:24;;;;;;;2.17;1.50;;;0.30;99.90;;;;;;5094987;28;20473;-51
2021/12/03 01:03:53;;;;;;;1.40;1.00;;;0.20;99.90;;;;;;5095578;28;20494;-55
2021/12/03 01:06:20;;;;;;;0.90;0.70;;;0.30;99.90;;;;;;5095028;28;20442;-53
2021/12/03 01:11:19;;;;;;;7.00;1.23;;;0.30;99.90;;;;;;5093149;28;20465;-49
2021/12/03 01:13:46;;;;;;;8.70;1.00;;;0.30;99.90;;;;;;5096335;28;20485;-50
2021/12/03 01:16:17;;;;;;;1.50;1.23;;;0.30;99.90;;;;;;5098915;28;20442;-51
2021/12/03 01:18:46;;;;;;;2.87;1.13;;;0.40;99.90;;;;;;5100393;28;20399;-51
2021/12/03 01:21:14;;;;;;;1.33;0.80;;;0.30;99.90;;;;;;5100702;28;20438;-51
2021/12/03 01:23:41;;;;;;;1.17;0.70;;;0.30;99.90;;;;;;5100316;28;20442;-49
2021/12/03 01:26:08;;;;;;;1.20;0.90;;;0.40;99.90;;;;;;5100201;28;20466;-50
2021/12/03 01:28:38;;;;;;;1.77;0.70;;;0.40;99.90;;;;;;5100195;28;20438;-46
2021/12/03 01:31:04;;;;;;;3.47;1.33;;;0.40;99.90;;;;;;5099916;28;20465;-48
2021/12/03 01:33:33;;;;;;;2.67;1.20;;;0.40;99.90;;;;;;5100057;28;20574;-56
2021/12/03 01:36:00;;;;;;;1.63;1.03;;;0.40;99.90;;;;;;5099521;28;20476;-43
2021/12/03 01:38:27;;;;;;;1.57;0.87;;;0.40;99.90;;;;;;5099614;28;20496;-47
2021/12/03 01:40:54;;;;;;;3.17;0.83;;;0.40;99.90;;;;;;5099342;28;20478;-51
2021/12/03 01:43:24;;;;;;;1.10;1.00;;;0.40;99.90;;;;;;5099942;28;20749;-50
2021/12/03 01:45:54;;;;;;;2.20;1.03;;;0.50;99.90;;;;;;5099993;28;20448;-53
2021/12/03 01:48:21;;;;;;;1.43;0.93;;;0.50;99.90;;;;;;5099366;28;20454;-48
2021/12/03 01:50:50;;;;;;;1.00;0.90;;;0.50;99.90;;;;;;5099102;28;20462;-54
2021/12/03 01:53:21;;;;;;;1.53;1.23;;;0.40;99.90;;;;;;5099013;28;20456;-52
2021/12/03 01:55:49;;;;;;;1.73;1.17;;;0.40;99.90;;;;;;5099468;28;20426;-45
2021/12/03 01:58:16;;;;;;;7.03;0.90;;;0.40;99.90;;;;;;5099426;28;20430;-51
2021/12/03 02:00:45;;;;;;;1.73;1.37;;;0.50;99.90;;;;;;5099113;28;20489;-50
2021/12/03 02:03:14;;;;;;;1.30;1.10;;;0.40;99.90;;;;;;5099220;28;20988;-53
2021/12/03 02:05:42;;;;;;;2.80;1.43;;;0.30;99.90;;;;;;5099028;28;20465;-51
2021/12/03 02:08:10;;;;;;;2.90;1.00;;;0.30;99.90;;;;;;5098949;28;20477;-47
2021/12/03 02:10:37;;;;;;;1.80;0.87;;;0.30;99.90;;;;;;5098690;28;20427;-51
2021/12/03 02:13:05;;;;;;;2.33;1.40;;;0.40;99.90;;;;;;5098624;28;20430;-49
2021/12/03 02:15:32;;;;;;;3.00;1.20;;;0.40;99.90;;;;;;5098746;28;20496;-53
2021/12/03 02:17:59;;;;;;;5.03;1.87;;;0.40;99.90;;;;;;5098675;28;20438;-51
2021/12/03 02:20:26;;;;;;;3.00;1.20;;;0.40;99.90;;;;;;5098994;28;20501;-50
2021/12/03 02:22:55;;;;;;;13.50;1.53;;;0.50;99.90;;;;;;5098951;28;20434;-45
2021/12/03 02:25:26;;;;;;;1.30;1.20;;;0.50;99.90;;;;;;5098917;28;20472;-57
2021/12/03 02:27:55;;;;;;;1.30;0.80;;;0.50;99.90;;;;;;5097478;28;20451;-53
2021/12/03 02:30:22;;;;;;;1.70;0.97;;;0.40;99.90;;;;;;5098438;28;20461;-50
2021/12/03 02:32:51;;;;;;;6.97;0.83;;;0.40;99.90;;;;;;5097881;28;20493;-50
2021/12/03 02:35:18;;;;;;;2.60;0.97;;;0.40;99.90;;;;;;5098159;28;20442;-54
2021/12/03 02:37:45;;;;;;;3.10;1.57;;;0.50;99.90;;;;;;5097991;28;20465;-53
2021/12/03 02:40:17;;;;;;;1.07;0.80;;;0.50;99.90;;;;;;5098054;28;20474;-48
2021/12/03 02:42:44;;;;;;;1.77;1.50;;;0.50;99.90;;;;;;5098275;28;20418;-46
2021/12/03 02:45:13;;;;;;;0.90;0.80;;;0.50;99.90;;;;;;5098398;28;20450;-48
2021/12/03 02:47:39;;;;;;;11.07;2.20;;;0.50;99.90;;;;;;5098115;28;20442;-49
2021/12/03 02:50:09;;;;;;;1.40;1.13;;;0.50;99.90;;;;;;5097807;28;20438;-50
2021/12/03 02:52:36;;;;;;;1.77;1.67;;;0.50;99.90;;;;;;5097782;28;20476;-49
2021/12/03 02:55:04;;;;;;;1.67;1.33;;;0.50;99.90;;;;;;5097507;28;20439;-50
2021/12/03 02:57:32;;;;;;;3.63;1.03;;;0.50;99.90;;;;;;5097909;28;20450;-55
2021/12/03 02:59:59;;;;;;;1.57;1.20;;;0.40;99.90;;;;;;5097906;28;20478;-51
2021/12/03 03:02:26;;;;;;;1.50;1.20;;;0.50;99.90;;;;;;5097756;28;20442;-50
2021/12/03 03:04:54;;;;;;;3.60;1.40;;;0.40;99.90;;;;;;5097632;28;20449;-48
2021/12/03 03:07:21;;;;;;;1.73;1.40;;;0.30;99.90;;;;;;5097459;28;20473;-50
2021/12/03 03:09:48;;;;;;;2.33;1.07;;;0.40;99.90;;;;;;5097092;28;20458;-47
2021/12/03 03:12:14;;;;;;;1.47;1.37;;;0.40;99.90;;;;;;5097563;28;20434;-45
2021/12/03 03:14:47;;;;;;;1.67;1.00;;;0.40;99.90;;;;;;5097384;28;20472;-51
2021/12/03 03:17:14;;;;;;;2.90;0.90;;;0.50;99.90;;;;;;5097930;28;20429;-47
2021/12/03 03:19:41;;;;;;;2.33;1.17;;;0.40;99.90;;;;;;5097357;28;20481;-55
2021/12/03 03:22:08;;;;;;;0.80;0.60;;;0.30;99.90;;;;;;5097211;28;20439;-50
2021/12/03 03:24:38;;;;;;;1.57;0.90;;;0.30;99.90;;;;;;5097686;28;20434;-48
2021/12/03 03:27:05;;;;;;;2.73;1.23;;;0.30;99.90;;;;;;5097121;28;20469;-51
2021/12/03 03:29:33;;;;;;;1.37;1.00;;;0.20;99.90;;;;;;5097007;28;20456;-50
2021/12/03 03:32:01;;;;;;;1.83;0.97;;;0.20;99.90;;;;;;5097041;28;20450;-53
2021/12/03 03:34:28;;;;;;;1.30;0.90;;;0.20;99.90;;;;;;5097016;28;20445;-46
2021/12/03 03:36:55;;;;;;;3.00;0.87;;;0.20;99.90;;;;;;5097212;28;20422;-46
2021/12/03 03:39:21;;;;;;;1.90;1.30;;;0.20;99.90;;;;;;5096250;28;20494;-47
2021/12/03 03:41:49;;;;;;;2.40;1.37;;;0.10;99.90;;;;;;5097167;28;20488;-51
2021/12/03 03:44:16;;;;;;;3.40;1.13;;;0.10;99.90;;;;;;5096844;28;20513;-50
2021/12/03 03:46:43;;;;;;;1.67;0.90;;;0.10;99.90;;;;;;5097046;28;20422;-50
2021/12/03 03:49:12;;;;;;;1.07;0.73;;;0.20;99.90;;;;;;5097146;28;20426;-49
2021/12/03 03:51:39;;;;;;;1.57;0.70;;;0.10;99.90;;;;;;5096938;28;20502;-49
2021/12/03 03:54:06;;;;;;;3.50;1.60;;;0.10;99.90;;;;;;5097257;28;20422;-46
2021/12/03 03:56:33;;;;;;;1.30;1.03;;;0.10;99.90;;;;;;5096979;28;20434;-47
2021/12/03 03:59:00;;;;;;;1.30;0.77;;;0.10;99.90;;;;;;5096534;28;20438;-49
2021/12/03 04:01:27;;;;;;;2.40;1.10;;;0.20;99.90;;;;;;5096630;28;20489;-55
2021/12/03 04:03:54;;;;;;;3.50;1.23;;;0.20;99.90;;;;;;5096932;28;20530;-53
2021/12/03 04:06:22;;;;;;;6.13;1.37;;;0.20;99.90;;;;;;5096580;28;20468;-49
2021/12/03 04:08:50;;;;;;;1.90;0.97;;;0.20;99.90;;;;;;5096798;28;20449;-49
2021/12/03 04:11:21;;;;;;;1.33;1.23;;;0.10;99.90;;;;;;5096547;28;20472;-49
2021/12/03 04:13:48;;;;;;;6.37;1.40;;;0.00;99.90;;;;;;5096541;28;20442;-51
2021/12/03 04:16:14;;;;;;;2.33;1.23;;;0.00;99.90;;;;;;5096414;28;20453;-54
2021/12/03 04:18:41;;;;;;;3.73;2.03;;;0.00;99.90;;;;;;5096234;28;20442;-52
2021/12/03 04:21:08;;;;;;;4.00;1.43;;;0.00;99.90;;;;;;5096369;28;20473;-52
2021/12/03 04:23:36;;;;;;;3.37;1.07;;;0.00;99.90;;;;;;5096571;28;20435;-49
2021/12/03 04:26:04;;;;;;;1.77;1.10;;;0.10;99.90;;;;;;5096230;28;20480;-46
2021/12/03 04:28:31;;;;;;;1.90;0.80;;;0.10;99.90;;;;;;5096416;28;20477;-47
2021/12/03 04:31:00;;;;;;;1.07;0.90;;;0.00;99.90;;;;;;5096745;28;20446;-48
2021/12/03 04:33:27;;;;;;;0.90;0.60;;;0.00;99.90;;;;;;5096169;28;20441;-50
2021/12/03 04:35:54;;;;;;;1.70;0.80;;;0.00;99.90;;;;;;5096117;28;20426;-49
2021/12/03 04:38:21;;;;;;;1.00;0.80;;;0.00;99.90;;;;;;5095940;28;20426;-50
2021/12/03 04:40:50;;;;;;;1.90;0.73;;;0.10;99.90;;;;;;5095857;28;20466;-48
2021/12/03 04:43:16;;;;;;;3.90;1.27;;;0.10;99.90;;;;;;5095669;28;20444;-48
2021/12/03 04:45:44;;;;;;;1.70;1.07;;;0.20;99.90;;;;;;5096382;28;20438;-50
2021/12/03 04:48:10;;;;;;;6.93;1.63;;;0.10;99.90;;;;;;5096319;28;20430;-57
2021/12/03 04:50:40;;;;;;;2.20;1.33;;;0.20;99.90;;;;;;5095018;28;20461;-52
2021/12/03 04:53:08;;;;;;;2.33;1.27;;;0.20;99.90;;;;;;5095822;28;20836;-51
2021/12/03 04:55:36;;;;;;;1.13;1.00;;;0.30;99.90;;;;;;5095731;28;20434;-45
2021/12/03 04:58:04;;;;;;;3.30;1.50;;;0.40;99.90;;;;;;5095476;28;20493;-48
2021/12/03 05:00:36;;;;;;;3.13;1.23;;;0.40;99.90;;;;;;5096270;28;20463;-50
2021/12/03 05:03:02;;;;;;;1.33;1.03;;;0.40;99.90;;;;;;5096099;28;20457;-45
2021/12/03 05:05:32;;;;;;;1.47;0.63;;;0.40;99.90;;;;;;5095984;28;20461;-50
2021/12/03 05:08:01;;;;;;;1.47;1.13;;;0.50;99.90;;;;;;5095780;28;20472;-51
2021/12/03 05:10:30;;;;;;;0.90;0.80;;;0.50;99.90;;;;;;5095292;28;20501;-46
2021/12/03 05:12:59;;;;;;;1.00;0.83;;;0.50;99.90;;;;;;5095878;28;20429;-47
2021/12/03 05:15:27;;;;;;;1.30;0.70;;;0.60;99.90;;;;;;5095764;28;20466;-50
2021/12/03 05:17:54;;;;;;;1.47;1.00;;;0.60;99.90;;;;;;5095472;28;20438;-50
2021/12/03 05:20:21;;;;;;;2.23;1.00;;;0.70;99.90;;;;;;5095556;28;20481;-52
2021/12/03 05:22:48;;;;;;;1.10;1.00;;;0.70;99.90;;;;;;5095333;28;20515;-53
2021/12/03 05:25:14;;;;;;;1.37;0.80;;;0.70;99.90;;;;;;5095181;28;20469;-49
2021/12/03 05:27:41;;;;;;;2.13;1.03;;;0.80;99.90;;;;;;5095272;28;20443;-52
2021/12/03 05:30:10;;;;;;;0.90;0.70;;;0.80;99.90;;;;;;5094971;28;20450;-51
2021/12/03 05:32:38;;;;;;;1.53;0.90;;;0.80;99.90;;;;;;5095491;28;20446;-46
2021/12/03 05:35:06;;;;;;;2.33;1.33;;;0.80;99.90;;;;;;5094613;28;20459;-50
2021/12/03 05:37:33;;;;;;;1.60;0.97;;;0.80;99.90;;;;;;5095485;28;20626;-52
2021/12/03 05:40:00;;;;;;;5.43;1.13;;;0.80;99.90;;;;;;5094920;28;20454;-50
2021/12/03 05:42:27;;;;;;;1.93;1.50;;;0.90;99.90;;;;;;5095349;28;20504;-51
2021/12/03 05:44:54;;;;;;;2.10;1.57;;;0.90;99.90;;;;;;5095452;28;20473;-47
2021/12/03 05:47:21;;;;;;;1.00;0.70;;;0.90;99.90;;;;;;5095599;28;20470;-50
2021/12/03 05:49:49;;;;;;;5.00;1.50;;;1.00;99.90;;;;;;5095804;28;20454;-48
2021/12/03 05:52:16;;;;;;;3.17;1.30;;;0.90;99.90;;;;;;5095333;28;20441;-53
2021/12/03 05:54:44;;;;;;;1.90;0.77;;;0.90;99.90;;;;;;5095801;28;20461;-52
2021/12/03 05:57:11;;;;;;;1.73;0.87;;;0.90;99.90;;;;;;5095658;28;20414;-52
2021/12/03 05:59:39;;;;;;;2.93;1.30;;;0.90;99.90;;;;;;5095393;28;20527;-57
2021/12/03 06:02:05;;;;;;;1.00;0.80;;;0.90;99.90;;;;;;5097269;28;20559;-49
2021/12/03 06:04:32;;;;;;;1.10;0.90;;;0.80;99.90;;;;;;5098947;28;20468;-49
2021/12/03 06:07:00;;;;;;;1.20;0.80;;;0.80;99.90;;;;;;5098787;28;20435;-44
2021/12/03 06:09:27;;;;;;;1.27;1.17;;;0.80;99.90;;;;;;5098789;28;20430;-51
2021/12/03 06:11:54;;;;;;;2.10;1.27;;;0.80;99.90;;;;;;5098455;28;20468;-53
2021/12/03 06:14:21;;;;;;;1.83;1.00;;;0.80;99.90;;;;;;5098599;28;20442;-53
2021/12/03 06:16:50;;;;;;;2.13;0.90;;;0.70;99.90;;;;;;5098278;28;20454;-52
2021/12/03 06:19:17;;;;;;;4.40;1.20;;;0.70;99.90;;;;;;5098475;28;20443;-52
2021/12/03 06:21:44;;;;;;;7.00;1.20;;;0.70;99.90;;;;;;5098672;28;20470;-43
2021/12/03 06:24:12;;;;;;;2.33;1.13;;;0.70;99.90;;;;;;5098214;28;20465;-51
2021/12/03 06:26:39;;;;;;;6.33;1.30;;;0.70;99.90;;;;;;5098468;28;20466;-46
2021/12/03 06:29:06;;;;;;;1.20;0.83;;;0.70;99.90;;;;;;5098598;28;20466;-50
2021/12/03 06:31:34;;;;;;;3.07;1.57;;;0.80;99.90;;;;;;5098486;28;20453;-51
2021/12/03 06:34:01;;;;;;;1.50;0.90;;;0.80;99.90;;;;;;5098031;28;20458;-48
2021/12/03 06:36:28;;;;;;;1.97;0.87;;;0.90;99.90;;;;;;5098143;28;20473;-48
2021/12/03 06:38:56;;;;;;;2.80;1.47;;;0.90;99.90;;;;;;5098407;28;20428;-46
2021/12/03 06:41:24;;;;;;;2.00;1.57;;;0.90;99.90;;;;;;5097748;28;20537;-47
2021/12/03 06:43:51;;;;;;;1.70;1.50;;;0.90;99.90;;;;;;5098227;28;20482;-48
2021/12/03 06:46:18;;;;;;;10.20;1.13;;;1.00;99.90;;;;;;5097798;28;20434;-52
2021/12/03 06:48:45;;;;;;;1.77;1.23;;;1.00;99.90;;;;;;5097814;28;20419;-52
2021/12/03 06:51:12;;;;;;;11.57;1.30;;;1.00;99.90;;;;;;5097846;28;20434;-58
2021/12/03 06:53:42;;;;;;;3.00;1.53;;;1.10;99.90;;;;;;5098220;28;20538;-53
2021/12/03 06:56:19;;;;;;;2.60;1.13;;;1.10;99.90;;;;;;5098041;28;20462;-53
2021/12/03 06:58:48;;;;;;;1.27;0.87;;;1.10;99.90;;;;;;5097766;28;20414;-45
2021/12/03 07:01:16;;;;;;;3.33;2.00;;;1.10;99.90;;;;;;5096819;28;20466;-48
2021/12/03 07:03:43;;;;;;;2.17;1.40;;;1.10;99.90;;;;;;5097810;28;20447;-48
2021/12/03 07:06:10;;;;;;;1.70;1.33;;;1.20;99.90;;;;;;5097436;28;20470;-54
2021/12/03 07:08:37;;;;;;;5.00;1.87;;;1.20;99.90;;;;;;5097742;28;20457;-52
2021/12/03 07:11:03;;;;;;;4.77;1.97;;;1.20;99.90;;;;;;5097274;28;20513;-48
2021/12/03 07:13:31;;;;;;;2.03;1.03;;;1.30;99.90;;;;;;5096709;28;20481;-47
2021/12/03 07:16:02;;;;;;;3.00;1.67;;;1.30;99.90;;;;;;5097477;28;20433;-46
2021/12/03 07:18:28;;;;;;;1.77;1.20;;;1.30;99.90;;;;;;5097851;28;20458;-48
2021/12/03 07:20:55;;;;;;;1.43;1.17;;;1.40;99.90;;;;;;5097694;28;20443;-51
2021/12/03 07:23:23;;;;;;;2.20;1.20;;;1.40;99.90;;;;;;5097480;28;20454;-50
2021/12/03 07:25:49;;;;;;;3.70;1.83;;;1.40;99.90;;;;;;5097434;28;20423;-53
2021/12/03 07:28:18;;;;;;;2.90;1.77;;;1.40;99.90;;;;;;5097388;28;20529;-47
2021/12/03 07:30:45;;;;;;;4.60;1.67;;;1.50;99.90;;;;;;5096644;28;20454;-51
2021/12/03 07:33:16;;;;;;;2.30;1.27;;;1.50;99.90;;;;;;5097311;28;20460;-50
2021/12/03 07:35:44;;;;;;;1.17;0.87;;;1.50;99.90;;;;;;5097036;28;20501;-52
2021/12/03 07:38:14;;;;;;;2.87;2.37;;;1.60;99.90;;;;;;5097053;28;20461;-47
2021/12/03 07:40:42;;;;;;;2.63;1.73;;;1.60;99.90;;;;;;5096812;28;20488;-52
2021/12/03 07:43:09;;;;;;;3.07;2.07;;;1.70;99.90;;;;;;5097154;28;20426;-52
2021/12/03 07:45:36;;;;;;;3.00;1.67;;;1.70;99.90;;;;;;5096945;28;20438;-52
2021/12/03 07:48:04;;;;;;;2.40;1.30;;;1.80;99.90;;;;;;5096449;28;20482;-54
2021/12/03 07:50:34;;;;;;;2.70;1.47;;;1.80;99.90;;;;;;5096241;28;20465;-49
2021/12/03 07:53:01;;;;;;;2.20;1.57;;;1.80;99.90;;;;;;5096186;28;20448;-53
2021/12/03 07:55:28;;;;;;;1.60;1.30;;;1.80;99.90;;;;;;5096961;28;20470;-49
2021/12/03 07:57:56;;;;;;;1.77;1.10;;;1.90;99.90;;;;;;5089980;28;20447;-52
2021/12/03 08:00:25;;;;;;;4.40;1.00;;;2.00;99.90;;;;;;5075764;28;20465;-54
2021/12/03 08:02:52;;;;;;;4.13;2.50;;;2.00;99.90;;;;;;5076651;28;20495;-56
2021/12/03 08:05:19;;;;;;;2.83;1.17;;;2.00;99.90;;;;;;5076589;28;20443;-48
2021/12/03 08:07:49;;;;;;;1.50;1.10;;;2.10;99.90;;;;;;5076203;28;20463;-52
2021/12/03 08:10:18;;;;;;;4.17;1.60;;;2.10;99.90;;;;;;5075886;28;20438;-48
2021/12/03 08:12:46;;;;;;;1.20;0.97;;;2.10;99.90;;;;;;5075629;28;20467;-51
2021/12/03 08:15:14;;;;;;;2.17;1.17;;;2.20;99.90;;;;;;5075116;28;20448;-51
2021/12/03 08:17:41;;;;;;;2.30;1.40;;;2.20;99.90;;;;;;5075834;28;20444;-53
2021/12/03 08:20:11;;;;;;;10.63;1.33;;;2.20;99.90;;;;;;5075644;28;20514;-52
2021/12/03 08:22:38;;;;;;;7.00;2.63;;;2.30;99.90;;;;;;5075452;28;20486;-52
2021/12/03 08:25:09;;;;;;;2.23;1.77;;;2.30;99.90;;;;;;5075312;28;20455;-48
2021/12/03 08:27:36;;;;;;;4.13;1.60;;;2.30;99.90;;;;;;5075436;28;20458;-50
2021/12/03 08:30:05;;;;;;;3.33;2.23;;;2.30;99.90;;;;;;5075477;28;20457;-50
2021/12/03 08:32:33;;;;;;;2.23;1.73;;;2.30;99.90;;;;;;5076149;28;20456;-47
2021/12/03 08:34:59;;;;;;;1.53;1.43;;;2.30;99.90;;;;;;5075497;28;20470;-46
2021/12/03 08:37:27;;;;;;;2.83;1.60;;;2.30;99.90;;;;;;5074875;28;20459;-47
2021/12/03 08:39:54;;;;;;;4.10;2.00;;;2.40;99.90;;;;;;5075349;28;20464;-48
2021/12/03 08:42:22;;;;;;;2.97;2.10;;;2.40;99.90;;;;;;5075369;28;20503;-44
2021/12/03 08:44:49;;;;;;;1.90;1.23;;;2.50;99.90;;;;;;5075116;28;20427;-49
2021/12/03 08:47:19;;;;;;;4.27;1.70;;;2.50;99.90;;;;;;5075297;28;20447;-51
2021/12/03 08:49:49;;;;;;;2.57;1.47;;;2.60;99.90;;;;;;5075630;28;21150;-48
2021/12/03 08:55:04;;;;;;;5.13;1.73;;;2.60;99.90;;;;;;5073993;28;20442;-51
2021/12/03 08:57:34;;;;;;;12.03;1.20;;;2.60;99.90;;;;;;5075224;28;20474;-51
2021/12/03 09:00:07;;;;;;;2.03;1.23;;;2.60;99.90;;;;;;5075453;28;20428;-49
2021/12/03 09:02:33;;;;;;;2.90;2.20;;;2.70;99.90;;;;;;5075490;28;20483;-48
2021/12/03 09:05:00;;;;;;;2.90;1.90;;;2.70;99.90;;;;;;5075229;28;20475;-46
2021/12/03 09:07:27;;;;;;;2.80;1.80;;;2.80;99.90;;;;;;5076184;28;20525;-46
2021/12/03 09:09:54;;;;;;;3.07;1.67;;;2.80;99.90;;;;;;5095684;28;20438;-49
2021/12/03 09:12:21;;;;;;;2.50;1.33;;;2.90;99.90;;;;;;5095397;28;20462;-45
2021/12/03 09:14:54;;;;;;;2.90;2.17;;;3.00;99.90;;;;;;5095351;28;20462;-45
2021/12/03 09:17:36;;;;;;;1.27;1.17;;;3.00;99.90;;;;;;5096094;28;20427;-47
2021/12/03 09:20:09;;;;;;;3.70;1.70;;;3.10;99.90;;;;;;5095536;28;20466;-49
2021/12/03 09:22:38;;;;;;;2.90;1.50;;;3.10;99.90;;;;;;5095427;28;20569;-52
2021/12/03 09:25:11;;;;;;;3.17;1.43;;;3.30;99.90;;;;;;5095172;28;20464;-52
2021/12/03 09:27:38;;;;;;;10.33;1.57;;;3.50;99.90;;;;;;5078892;28;20470;-44
2021/12/03 09:30:10;;;;;;;2.40;1.57;;;3.60;99.90;;;;;;5076015;28;20451;-47
2021/12/03 09:32:39;;;;;;;3.73;1.40;;;3.70;99.90;;;;;;5075856;28;20463;-48
2021/12/03 09:35:07;;;;;;;3.93;1.70;;;3.90;99.90;;;;;;5075270;28;20465;-53
2021/12/03 09:37:34;;;;;;;2.90;1.67;;;4.20;99.90;;;;;;5078675;28;20438;-52
2021/12/03 09:40:05;;;;;;;2.13;1.00;;;4.30;99.90;;;;;;5079164;28;20551;-53
2021/12/03 09:42:34;;;;;;;3.67;1.90;;;4.30;99.90;;;;;;5078333;28;20479;-52
2021/12/03 09:45:02;;;;;;;2.63;1.83;;;4.40;99.90;;;;;;5091097;28;20470;-50
2021/12/03 09:47:33;;;;;;;5.10;1.63;;;4.50;99.90;;;;;;5094492;28;20442;-51
2021/12/03 09:50:03;;;;;;;2.30;1.30;;;4.50;99.90;;;;;;5097333;28;20462;-49
2021/12/03 09:52:35;;;;;;;3.70;1.67;;;4.50;99.90;;;;;;5099610;28;20422;-54
2021/12/03 09:55:07;;;;;;;2.80;1.37;;;4.60;99.90;;;;;;5099631;28;20437;-52
2021/12/03 09:57:37;;;;;;;3.27;1.17;;;4.60;99.90;;;;;;5098753;28;20466;-53
2021/12/03 10:00:17;;;;;;;2.10;1.43;;;4.80;99.90;;;;;;5095123;28;20505;-47
2021/12/03 10:03:03;;;;;;;2.80;1.27;;;5.20;99.90;;;;;;5081396;28;20481;-47
2021/12/03 10:13:46;;;;;;;1.80;1.20;;;5.90;99.90;;;;;;5080760;28;20415;-55
2021/12/03 10:16:31;;;;;;;1.30;1.10;;;5.90;99.90;;;;;;5086314;28;20458;-55
2021/12/03 10:19:18;;;;;;;4.37;1.47;;;6.30;99.90;;;;;;5074242;28;20520;-54
2021/12/03 10:27:51;;;;;;;3.03;1.20;;;6.00;99.90;;;;;;5081182;28;20554;-54
2021/12/03 10:30:34;;;;;;;3.20;1.73;;;5.50;99.90;;;;;;5077601;28;20912;-47
2021/12/03 10:33:14;;;;;;;2.27;1.20;;;5.10;99.90;;;;;;5074884;28;20491;-51
2021/12/03 10:41:24;;;;;;;1.67;1.10;;;4.50;99.90;;;;;;5081611;28;20533;-51
2021/12/03 10:44:10;;;;;;;1.57;1.10;;;4.40;99.90;;;;;;5092136;28;20477;-55
2021/12/03 10:46:48;;;;;;;2.07;1.00;;;4.40;99.90;;;;;;5087169;28;20477;-53
2021/12/03 10:52:17;;;;;;;3.77;2.30;;;4.30;99.90;;;;;;5071670;28;20442;-52
2021/12/03 10:55:19;;;;;;;3.73;1.67;;;4.40;99.90;;;;;;5093364;28;20486;-50
2021/12/03 10:58:21;;;;;;;2.03;1.27;;;4.40;99.90;;;;;;5075690;28;20467;-52
2021/12/03 11:01:20;;;;;;;2.70;1.30;;;4.40;99.90;;;;;;5094564;28;20737;-49
2021/12/03 11:29:37;;;;;;;2.50;1.47;;;4.50;99.90;;;;;;5053502;28;20458;-51
2021/12/03 12:35:57;;;;;;;3.60;2.10;;;4.60;99.90;;;;;;5087441;28;20492;-55
2021/12/03 13:12:55;;;;;;;2.23;1.80;;;4.40;99.90;;;;;;5088835;28;20468;-54
2021/12/03 13:18:37;;;;;;;4.87;3.30;;;4.30;99.90;;;;;;5093914;28;20441;-55
2021/12/03 13:26:58;;;;;;;2.90;2.20;;;4.40;99.90;;;;;;5094218;28;20417;-53
2021/12/03 14:45:58;;;;;;;4.97;2.60;;;4.50;99.90;;;;;;5088318;28;20446;-55
2021/12/03 14:54:27;;;;;;;5.43;3.50;;;4.00;99.90;;;;;;5094786;28;20409;-55
2021/12/03 14:57:21;;;;;;;5.27;4.20;;;3.80;99.90;;;;;;5094298;28;20474;-53
2021/12/03 15:00:01;;;;;;;7.10;3.37;;;3.80;99.90;;;;;;5093488;28;20457;-56
2021/12/03 15:02:41;;;;;;;8.47;4.37;;;3.80;99.90;;;;;;5093376;28;20496;-53
2021/12/03 15:05:44;;;;;;;4.53;3.27;;;3.80;99.90;;;;;;5093347;28;20469;-50
2021/12/03 15:08:18;;;;;;;5.00;2.67;;;3.80;99.90;;;;;;5093617;28;20552;-57
2021/12/03 15:11:11;;;;;;;24.27;4.07;;;3.80;99.90;;;;;;5094528;28;20449;-53
2021/12/03 15:19:41;;;;;;;8.00;4.20;;;3.80;99.90;;;;;;5078266;28;20427;-55
2021/12/03 15:22:26;;;;;;;5.63;3.10;;;3.70;99.90;;;;;;5092734;28;20769;-52
2021/12/03 15:25:03;;;;;;;5.83;2.50;;;3.70;99.90;;;;;;5092046;28;20455;-56
2021/12/03 15:30:54;;;;;;;8.10;3.87;;;3.70;99.90;;;;;;5031336;28;20505;-55
2021/12/03 15:33:28;;;;;;;11.50;4.53;;;3.70;99.90;;;;;;5088826;28;20509;-54
2021/12/03 15:35:58;;;;;;;16.13;4.70;;;3.70;99.90;;;;;;5092061;28;20423;-55
2021/12/03 15:58:32;;;;;;;10.00;4.53;;;3.70;99.90;;;;;;5170481;27;20441;-52
2021/12/03 16:03:53;;;;;;;9.60;4.60;;;3.70;99.90;;;;;;5170957;27;20445;-54
2021/12/03 16:06:35;;;;;;;7.30;3.20;;;3.60;99.90;;;;;;5171729;27;20428;-54
2021/12/03 16:09:13;;;;;;;8.60;4.60;;;3.60;99.90;;;;;;5170936;27;20470;-54
2021/12/03 16:11:46;;;;;;;13.33;6.17;;;3.60;99.90;;;;;;5170309;27;20428;-50
2021/12/03 16:17:28;;;;;;;13.23;3.00;;;3.60;99.90;;;;;;5170839;27;20196;-48
2021/12/03 16:22:48;;;;;;;3.70;3.13;;;3.90;99.90;;;;;;5171504;27;20200;-51
2021/12/03 16:47:30;;;;;;;3.43;2.57;;;3.70;99.90;;;;;;5145484;27;20448;-54
2021/12/03 16:52:42;;;;;;;5.30;1.77;;;3.60;99.90;;;;;;5156791;27;20688;-54
2021/12/03 16:55:10;;;;;;;6.80;2.70;;;3.60;99.90;;;;;;5170043;27;20499;-55
2021/12/03 16:57:39;;;;;;;6.00;2.73;;;3.60;99.90;;;;;;5170325;27;20488;-55
2021/12/03 17:00:19;;;;;;;5.37;2.60;;;3.50;99.90;;;;;;5170948;27;20439;-55
2021/12/03 17:02:51;;;;;;;4.27;2.23;;;3.50;99.90;;;;;;5171237;27;20473;-49
2021/12/03 17:05:32;;;;;;;4.60;2.80;;;3.40;99.90;;;;;;5162198;27;20428;-54
2021/12/03 17:14:07;;;;;;;3.05;2.22;;;3.40;99.90;;;;;;5160584;27;20444;-54
2021/12/03 17:31:18;;;;;;;4.32;2.15;;;3.40;99.90;;;;;;5146358;27;20411;-50
2021/12/03 17:45:11;;;;;;;4.10;2.23;;;3.50;99.90;;;;;;5178137;27;20463;-52
2021/12/03 17:50:40;;;;;;;6.40;2.23;;;3.50;99.90;;;;;;5172797;27;20430;-49
2021/12/03 17:53:29;;;;;;;3.97;3.40;;;3.60;99.90;;;;;;5155001;27;20475;-54
2021/12/03 17:56:08;;;;;;;4.90;2.50;;;3.60;99.90;;;;;;5171148;27;20256;-53
2021/12/03 17:58:36;;;;;;;3.77;2.43;;;3.60;99.90;;;;;;5142672;27;20478;-49
2021/12/03 18:01:09;;;;;;;5.17;4.10;;;3.60;99.90;;;;;;5167680;27;20447;-49
2021/12/03 18:03:43;;;;;;;4.40;3.07;;;3.60;99.90;;;;;;5168221;27;20422;-54
2021/12/03 18:09:10;;;;;;;4.27;2.37;;;3.60;99.90;;;;;;5131974;27;20810;-51
2021/12/03 18:12:17;;;;;;;7.50;2.50;;;3.60;99.90;;;;;;5168483;27;20458;-51
2021/12/03 18:53:26;;;;;;;2.13;1.75;;;3.50;99.90;;;;;;5155852;27;20451;-48
2021/12/03 18:55:55;;;;;;;4.83;2.33;;;3.50;99.90;;;;;;5164223;27;20182;-54
2021/12/03 18:58:24;;;;;;;8.07;3.67;;;3.50;99.90;;;;;;5162452;27;20450;-58
2021/12/03 19:00:53;;;;;;;4.03;2.70;;;3.40;99.90;;;;;;5169891;27;20439;-50
2021/12/03 19:03:25;;;;;;;2.77;2.17;;;3.40;99.90;;;;;;5170527;27;20450;-54
2021/12/03 19:06:04;;;;;;;2.53;2.30;;;3.40;99.90;;;;;;5163199;27;20451;-52
2021/12/03 19:08:39;;;;;;;5.67;2.93;;;3.40;99.90;;;;;;5144277;27;20203;-56
2021/12/03 19:11:13;;;;;;;2.87;1.90;;;3.30;99.90;;;;;;5160984;27;20434;-50
2021/12/03 19:13:41;;;;;;;4.40;2.33;;;3.30;99.90;;;;;;5165359;27;20455;-57
2021/12/03 19:16:10;;;;;;;2.53;2.17;;;3.20;99.90;;;;;;5172075;27;20679;-50
2021/12/03 19:18:38;;;;;;;3.23;2.50;;;3.20;99.90;;;;;;5159130;27;20466;-56
2021/12/03 19:21:23;;;;;;;7.30;3.30;;;3.20;99.90;;;;;;5165082;27;20496;-52
2021/12/03 19:23:50;;;;;;;10.87;4.20;;;3.10;99.90;;;;;;5073654;28;20475;-46
2021/12/03 19:26:20;;;;;;;4.07;2.60;;;3.20;99.90;;;;;;5072808;28;20502;-51
2021/12/03 19:28:49;;;;;;;4.50;2.60;;;3.20;99.90;;;;;;5074519;28;20466;-53
2021/12/03 19:31:16;;;;;;;4.23;2.97;;;3.20;99.90;;;;;;5073594;28;20466;-51
2021/12/03 19:33:44;;;;;;;4.70;3.70;;;3.10;99.90;;;;;;5069585;28;20923;-53
2021/12/03 19:36:11;;;;;;;5.20;4.23;;;3.20;99.90;;;;;;5052909;28;20471;-49